ブラチスラヴァ の空港の天気 - METARとTAF

ブラチスラヴァ空港 ( LZIB / BTS ) - スロバキア ブラチスラヴァ
飛行場実況気象(Metar)
観測時間07/17 11:00 CEST (07/17 09:00 UTC)
風向・風速西北西 3m/s
視程10km以上
天気現象
少しの雲 雲底高度 1460m
気温22℃
湿度46%
気圧1014hPa
METARLZIB 170900Z 30006KT 230V020 9999 FEW048 22/10 Q1014 NOSIG
過去の天気等 Google飛行場航空写真 Wunderground天気予報

過去48時間のMETAR

飛行場予報(TAF)
発表時間: 7/17 07:00 CEST (7/17 05:00 UTC)
予報対象時間: 17日8時 CEST ~ 18日8時 CEST
風向・風速北北西 4m/s
視程10km以上
なし
17日9時 CEST ~ 17日12時 CEST に一時的に
視程10km以上
少しの雲 雲底高度 1370m
17日14時 CEST ~ 17日16時 CEST に徐々に
風向・風速北 4m/s
17日19時 CEST ~ 17日21時 CEST に徐々に
風向・風速北北東 2m/s
TAF LZIB 170500Z 1706/1806 33008KT CAVOK
TEMPO 1707/1710 9999 FEW045
BECMG 1712/1714 01008KT
BECMG 1717/1719 03004KT